Time;durP1;ratioP1;P1;durP2;ratioP2;P2;SDS_P1;SDS_P2;PMS_P1;PMS_P2;Temp;Humidity;BMP_temperature;BMP_pressure;BME280_temperature;BME280_humidity;BME280_pressure;Samples;Min_cycle;Max_cycle;Signal;HPM_P1;HPM_P2
2023/07/30 00:00:30;;;;;;;2.75;1.77;;;;;;;;;;2039973;28;20417;-81
2023/07/30 00:01:49;;;;;;;1.67;1.58;;;;;;;;;;2037239;28;20068;-82
2023/07/30 00:03:08;;;;;;;2.00;1.90;;;;;;;;;;2046185;28;20035;-78
2023/07/30 00:04:27;;;;;;;4.28;1.95;;;;;;;;;;2040086;28;20063;-79
2023/07/30 00:05:53;;;;;;;3.28;2.28;;;;;;;;;;2044844;29;20035;-79
2023/07/30 00:07:12;;;;;;;2.55;1.95;;;;;;;;;;2040914;28;20036;-78
2023/07/30 00:08:31;;;;;;;1.67;1.58;;;;;;;;;;2038774;28;20031;-79
2023/07/30 00:09:49;;;;;;;2.30;2.08;;;;;;;;;;2044190;28;20031;-79
2023/07/30 00:11:08;;;;;;;1.75;1.65;;;;;;;;;;2049309;28;20036;-79
2023/07/30 00:12:27;;;;;;;1.80;1.70;;;;;;;;;;2044177;28;20036;-79
2023/07/30 00:13:46;;;;;;;2.17;1.75;;;;;;;;;;2044383;28;20027;-80
2023/07/30 00:15:06;;;;;;;1.90;1.80;;;;;;;;;;2048656;28;20035;-80
2023/07/30 00:16:25;;;;;;;1.85;1.70;;;;;;;;;;2043599;28;20036;-80
2023/07/30 00:17:44;;;;;;;2.38;2.17;;;;;;;;;;2037549;29;20036;-80
2023/07/30 00:19:03;;;;;;;2.33;2.03;;;;;;;;;;2046139;28;20032;-80
2023/07/30 00:20:22;;;;;;;2.35;1.52;;;;;;;;;;2047686;28;20098;-80
2023/07/30 00:21:45;;;;;;;2.28;2.10;;;;;;;;;;2038783;29;20102;-80
2023/07/30 00:23:06;;;;;;;2.15;1.95;;;;;;;;;;2044886;28;20039;-79
2023/07/30 00:24:25;;;;;;;1.80;1.70;;;;;;;;;;2042751;28;20031;-79
2023/07/30 00:25:43;;;;;;;1.90;1.80;;;;;;;;;;2037147;28;20433;-80
2023/07/30 00:27:02;;;;;;;1.95;1.85;;;;;;;;;;2042801;28;20023;-80
2023/07/30 00:28:21;;;;;;;2.30;2.20;;;;;;;;;;2048470;29;20039;-80
2023/07/30 00:29:40;;;;;;;2.28;2.05;;;;;;;;;;2047296;29;20039;-80
2023/07/30 00:30:59;;;;;;;2.30;2.08;;;;;;;;;;2041858;28;20035;-80
2023/07/30 00:32:18;;;;;;;2.03;1.85;;;;;;;;;;2036750;28;20036;-79
2023/07/30 00:33:37;;;;;;;2.00;1.73;;;;;;;;;;2044760;28;20130;-81
2023/07/30 00:34:56;;;;;;;2.22;1.90;;;;;;;;;;2047926;28;20496;-80
2023/07/30 00:36:15;;;;;;;2.28;1.88;;;;;;;;;;2048479;28;20039;-80
2023/07/30 00:37:34;;;;;;;2.22;2.05;;;;;;;;;;2054217;28;20033;-79
2023/07/30 00:38:53;;;;;;;2.00;1.90;;;;;;;;;;2040962;28;20035;-80
2023/07/30 00:40:12;;;;;;;2.55;2.30;;;;;;;;;;2038737;28;20083;-80
2023/07/30 00:41:33;;;;;;;2.53;2.17;;;;;;;;;;2037979;28;20115;-80
2023/07/30 00:42:52;;;;;;;2.22;2.03;;;;;;;;;;2042057;28;20059;-80
2023/07/30 00:44:11;;;;;;;2.33;1.90;;;;;;;;;;2036597;28;20040;-80
2023/07/30 00:45:31;;;;;;;3.35;2.28;;;;;;;;;;2044585;29;20027;-79
2023/07/30 00:46:50;;;;;;;2.75;2.05;;;;;;;;;;2046878;28;20035;-78
2023/07/30 00:48:10;;;;;;;2.35;2.15;;;;;;;;;;2047613;28;20095;-79
2023/07/30 00:49:29;;;;;;;2.42;2.22;;;;;;;;;;2046757;28;20039;-80
2023/07/30 00:50:50;;;;;;;4.13;2.10;;;;;;;;;;2051025;28;20381;-80
2023/07/30 00:52:10;;;;;;;3.15;2.08;;;;;;;;;;2054019;28;20444;-80
2023/07/30 00:53:29;;;;;;;2.53;2.33;;;;;;;;;;2043636;28;20032;-81
2023/07/30 00:54:48;;;;;;;5.53;1.90;;;;;;;;;;2045249;28;20012;-79
2023/07/30 00:56:07;;;;;;;5.05;2.55;;;;;;;;;;2055456;28;20012;-80
2023/07/30 00:57:26;;;;;;;3.47;2.15;;;;;;;;;;2058077;29;20066;-79
2023/07/30 00:58:46;;;;;;;2.38;1.83;;;;;;;;;;2052664;28;20028;-80
2023/07/30 01:00:08;;;;;;;3.22;2.53;;;;;;;;;;2038487;28;20024;-78
2023/07/30 01:01:28;;;;;;;2.45;2.25;;;;;;;;;;2043202;28;20056;-81
2023/07/30 01:02:47;;;;;;;2.47;2.28;;;;;;;;;;2052850;29;20035;-80
2023/07/30 01:04:06;;;;;;;2.92;2.08;;;;;;;;;;2044368;28;20087;-81
2023/07/30 01:05:26;;;;;;;3.03;2.30;;;;;;;;;;2049795;28;20055;-79
2023/07/30 01:06:45;;;;;;;2.60;2.40;;;;;;;;;;2050099;28;20393;-79
2023/07/30 01:08:04;;;;;;;3.05;2.10;;;;;;;;;;2043566;28;20043;-80
2023/07/30 01:09:23;;;;;;;2.53;2.33;;;;;;;;;;2040823;29;20036;-79
2023/07/30 01:10:42;;;;;;;3.88;2.10;;;;;;;;;;2049071;28;20035;-80
2023/07/30 01:12:01;;;;;;;4.43;2.05;;;;;;;;;;2040902;28;20405;-80
2023/07/30 01:13:20;;;;;;;3.42;2.58;;;;;;;;;;2047083;28;20027;-79
2023/07/30 01:14:40;;;;;;;3.67;2.17;;;;;;;;;;2048158;28;20031;-80
2023/07/30 01:15:59;;;;;;;2.35;2.15;;;;;;;;;;2043775;28;20513;-80
2023/07/30 01:17:21;;;;;;;2.45;2.25;;;;;;;;;;2036855;29;20040;-80
2023/07/30 01:18:40;;;;;;;5.95;2.80;;;;;;;;;;2037426;29;20044;-79
2023/07/30 01:20:01;;;;;;;3.90;2.60;;;;;;;;;;2037293;28;20020;-80
2023/07/30 01:21:20;;;;;;;2.60;2.40;;;;;;;;;;2044829;28;20045;-79
2023/07/30 01:22:38;;;;;;;6.63;2.50;;;;;;;;;;2049709;28;20057;-80
2023/07/30 01:23:57;;;;;;;3.15;2.40;;;;;;;;;;2048975;28;20024;-80
2023/07/30 01:25:16;;;;;;;3.67;2.17;;;;;;;;;;2079440;28;20033;-79
2023/07/30 01:26:42;;;;;;;2.63;2.40;;;;;;;;;;2061847;28;20059;-79
2023/07/30 01:28:02;;;;;;;2.00;1.90;;;;;;;;;;2053728;28;20025;-79
2023/07/30 01:29:22;;;;;;;2.00;1.90;;;;;;;;;;2040938;28;20035;-78
2023/07/30 01:30:42;;;;;;;2.47;2.28;;;;;;;;;;2044905;28;20122;-79
2023/07/30 01:32:04;;;;;;;2.35;2.10;;;;;;;;;;2039298;28;20036;-80
2023/07/30 01:33:23;;;;;;;2.35;2.15;;;;;;;;;;2049213;28;20455;-79
2023/07/30 01:34:44;;;;;;;2.47;2.28;;;;;;;;;;2047049;28;20047;-80
2023/07/30 01:36:03;;;;;;;5.07;2.17;;;;;;;;;;2048552;29;20031;-80
2023/07/30 01:37:23;;;;;;;2.80;2.45;;;;;;;;;;2040315;28;20028;-80
2023/07/30 01:38:42;;;;;;;3.65;2.45;;;;;;;;;;2044171;28;20055;-80
2023/07/30 01:40:02;;;;;;;3.17;2.30;;;;;;;;;;2039308;28;20020;-80
2023/07/30 01:41:24;;;;;;;2.33;2.13;;;;;;;;;;2044881;29;20031;-80
2023/07/30 01:42:43;;;;;;;3.78;2.30;;;;;;;;;;2048462;28;20028;-79
2023/07/30 01:44:04;;;;;;;2.85;2.65;;;;;;;;;;2048317;28;20027;-79
2023/07/30 01:45:22;;;;;;;2.30;2.10;;;;;;;;;;2048929;28;20451;-78
2023/07/30 01:46:42;;;;;;;4.32;2.70;;;;;;;;;;2047766;29;20039;-79
2023/07/30 01:48:00;;;;;;;7.72;2.25;;;;;;;;;;2047669;28;20118;-79
2023/07/30 01:49:21;;;;;;;2.80;2.58;;;;;;;;;;2039575;28;20078;-79
2023/07/30 01:50:40;;;;;;;5.80;2.53;;;;;;;;;;2045094;29;20387;-78
2023/07/30 01:51:59;;;;;;;6.95;2.20;;;;;;;;;;2048124;28;20023;-79
2023/07/30 01:53:18;;;;;;;2.70;2.50;;;;;;;;;;2039127;28;20032;-78
2023/07/30 01:54:37;;;;;;;4.07;2.83;;;;;;;;;;2044264;29;20032;-79
2023/07/30 01:55:55;;;;;;;2.60;2.40;;;;;;;;;;2047506;28;20031;-79
2023/07/30 01:57:14;;;;;;;2.20;2.10;;;;;;;;;;2038924;28;20420;-78
2023/07/30 01:58:33;;;;;;;2.42;2.28;;;;;;;;;;2037188;28;20043;-79
2023/07/30 01:59:52;;;;;;;2.78;2.33;;;;;;;;;;2080249;28;20101;-79
2023/07/30 02:01:11;;;;;;;3.03;2.10;;;;;;;;;;2061937;28;20032;-80
2023/07/30 02:02:30;;;;;;;2.55;2.35;;;;;;;;;;2048334;29;20032;-80
2023/07/30 02:03:48;;;;;;;2.60;2.38;;;;;;;;;;2039558;28;20512;-80
2023/07/30 02:05:07;;;;;;;3.92;2.35;;;;;;;;;;2044855;28;20059;-80
2023/07/30 02:06:26;;;;;;;3.38;2.88;;;;;;;;;;2047874;28;20035;-79
2023/07/30 02:07:45;;;;;;;3.10;2.38;;;;;;;;;;2048576;28;20027;-79
2023/07/30 02:09:05;;;;;;;4.55;3.28;;;;;;;;;;2048601;28;20476;-80
2023/07/30 02:10:25;;;;;;;2.75;2.45;;;;;;;;;;2040124;29;20036;-79
2023/07/30 02:11:44;;;;;;;2.95;2.30;;;;;;;;;;2037373;28;20036;-80
2023/07/30 02:13:03;;;;;;;3.92;2.28;;;;;;;;;;2043944;28;20102;-81
2023/07/30 02:14:22;;;;;;;5.05;2.47;;;;;;;;;;2080776;28;20037;-78
2023/07/30 02:15:42;;;;;;;2.50;2.30;;;;;;;;;;2061355;28;20028;-79
2023/07/30 02:17:02;;;;;;;2.95;2.17;;;;;;;;;;2055025;28;20533;-79
2023/07/30 02:18:21;;;;;;;2.60;2.30;;;;;;;;;;2050340;28;20436;-80
2023/07/30 02:19:41;;;;;;;2.88;2.30;;;;;;;;;;2040919;28;20031;-79
2023/07/30 02:21:02;;;;;;;2.58;2.38;;;;;;;;;;2039010;28;20032;-80
2023/07/30 02:22:21;;;;;;;2.28;2.08;;;;;;;;;;2045883;28;20035;-78
2023/07/30 02:23:39;;;;;;;2.40;2.20;;;;;;;;;;2048442;28;20027;-80
2023/07/30 02:24:58;;;;;;;2.60;1.98;;;;;;;;;;2047779;29;20023;-79
2023/07/30 02:26:17;;;;;;;2.45;2.30;;;;;;;;;;2048039;29;20035;-78
2023/07/30 02:27:36;;;;;;;2.65;2.40;;;;;;;;;;2053068;28;20028;-79
2023/07/30 02:28:55;;;;;;;2.88;2.22;;;;;;;;;;2039006;28;20409;-79
2023/07/30 02:30:14;;;;;;;3.65;2.33;;;;;;;;;;2043168;29;20039;-79
2023/07/30 02:31:33;;;;;;;4.05;2.38;;;;;;;;;;2047422;28;20051;-79
2023/07/30 02:32:52;;;;;;;5.20;2.72;;;;;;;;;;2041305;28;20532;-79
2023/07/30 02:34:11;;;;;;;2.35;2.15;;;;;;;;;;2044124;29;20153;-79
2023/07/30 02:35:30;;;;;;;2.30;2.20;;;;;;;;;;2039593;28;20031;-79
2023/07/30 02:36:49;;;;;;;2.60;2.40;;;;;;;;;;2041615;28;20481;-79
2023/07/30 02:38:08;;;;;;;2.45;2.25;;;;;;;;;;2047948;29;20047;-79
2023/07/30 02:39:27;;;;;;;3.00;2.65;;;;;;;;;;2047989;29;20027;-79
2023/07/30 02:40:46;;;;;;;2.97;2.67;;;;;;;;;;2039242;28;20023;-79
2023/07/30 02:42:05;;;;;;;2.92;2.30;;;;;;;;;;2036376;29;20036;-79
2023/07/30 02:43:23;;;;;;;2.80;2.30;;;;;;;;;;2044633;29;20040;-79
2023/07/30 02:44:42;;;;;;;3.88;2.58;;;;;;;;;;2047584;28;20115;-79
2023/07/30 02:46:01;;;;;;;2.70;2.50;;;;;;;;;;2047428;28;20049;-79
2023/07/30 02:47:20;;;;;;;2.50;2.30;;;;;;;;;;2039558;28;20027;-79
2023/07/30 02:48:39;;;;;;;3.10;2.80;;;;;;;;;;2043961;29;20035;-79
2023/07/30 02:49:58;;;;;;;2.55;2.33;;;;;;;;;;2049510;28;20035;-79
2023/07/30 02:51:17;;;;;;;3.15;2.20;;;;;;;;;;2049757;28;20059;-79
2023/07/30 02:52:36;;;;;;;2.90;2.70;;;;;;;;;;2048016;28;20039;-79
2023/07/30 02:53:59;;;;;;;3.05;2.85;;;;;;;;;;2048609;28;20392;-79
2023/07/30 02:55:21;;;;;;;3.45;2.80;;;;;;;;;;2044340;28;20497;-79
2023/07/30 02:56:41;;;;;;;2.60;2.30;;;;;;;;;;2036062;28;20485;-79
2023/07/30 02:57:59;;;;;;;3.10;2.80;;;;;;;;;;2045064;28;21017;-80
2023/07/30 02:59:19;;;;;;;2.67;2.40;;;;;;;;;;2046348;28;20489;-80
2023/07/30 03:00:38;;;;;;;2.53;2.33;;;;;;;;;;2039136;28;20067;-80
2023/07/30 03:01:57;;;;;;;3.30;2.80;;;;;;;;;;2037546;28;20031;-79
2023/07/30 03:03:16;;;;;;;2.40;2.22;;;;;;;;;;2043078;28;20103;-80
2023/07/30 03:04:36;;;;;;;4.22;2.60;;;;;;;;;;2036793;28;21755;-79
2023/07/30 03:05:55;;;;;;;3.00;2.35;;;;;;;;;;2044559;29;20043;-80
2023/07/30 03:07:14;;;;;;;2.53;2.33;;;;;;;;;;2041171;28;20471;-79
2023/07/30 03:08:33;;;;;;;2.63;2.42;;;;;;;;;;2045671;28;20492;-80
2023/07/30 03:09:52;;;;;;;3.47;2.42;;;;;;;;;;2051771;28;20524;-79
2023/07/30 03:11:11;;;;;;;4.68;2.50;;;;;;;;;;2043403;28;20033;-80
2023/07/30 03:12:30;;;;;;;3.78;2.30;;;;;;;;;;2051878;28;20110;-80
2023/07/30 03:13:48;;;;;;;3.10;2.80;;;;;;;;;;2049619;28;20027;-80
2023/07/30 03:15:08;;;;;;;3.97;2.90;;;;;;;;;;2041215;28;20409;-80
2023/07/30 03:16:27;;;;;;;2.90;2.58;;;;;;;;;;2039716;28;20031;-79
2023/07/30 03:17:46;;;;;;;2.70;2.50;;;;;;;;;;2037149;28;20039;-79
2023/07/30 03:19:05;;;;;;;3.45;2.40;;;;;;;;;;2037291;28;20031;-79
2023/07/30 03:20:24;;;;;;;2.97;2.63;;;;;;;;;;2045702;28;20542;-80
2023/07/30 03:21:42;;;;;;;4.13;3.00;;;;;;;;;;2046344;29;20023;-80
2023/07/30 03:23:01;;;;;;;6.20;2.67;;;;;;;;;;2041238;28;20024;-80
2023/07/30 03:24:20;;;;;;;2.72;2.50;;;;;;;;;;2037812;28;20036;-80
2023/07/30 03:25:39;;;;;;;3.60;2.30;;;;;;;;;;2045160;28;20027;-80
2023/07/30 03:26:58;;;;;;;2.90;2.15;;;;;;;;;;2040781;28;20032;-80
2023/07/30 03:28:17;;;;;;;2.78;2.58;;;;;;;;;;2046130;28;20505;-80
2023/07/30 03:29:36;;;;;;;2.60;2.40;;;;;;;;;;2048019;28;20476;-79
2023/07/30 03:30:55;;;;;;;2.80;2.60;;;;;;;;;;2048399;28;20035;-80
2023/07/30 03:32:14;;;;;;;2.67;2.47;;;;;;;;;;2048240;28;20051;-80
2023/07/30 03:33:34;;;;;;;3.15;2.85;;;;;;;;;;2040666;29;20032;-80
2023/07/30 03:34:53;;;;;;;2.80;2.30;;;;;;;;;;2044864;29;20051;-80
2023/07/30 03:36:13;;;;;;;2.88;2.67;;;;;;;;;;2048801;28;20496;-79
2023/07/30 03:37:32;;;;;;;2.38;2.25;;;;;;;;;;2048861;29;20123;-80
2023/07/30 03:38:51;;;;;;;3.30;2.53;;;;;;;;;;2041352;28;20056;-80
2023/07/30 03:40:10;;;;;;;3.60;2.92;;;;;;;;;;2045514;29;20051;-80
2023/07/30 03:41:29;;;;;;;3.38;2.70;;;;;;;;;;2050650;28;20434;-79
2023/07/30 03:42:48;;;;;;;3.08;2.85;;;;;;;;;;2040438;28;20028;-79
2023/07/30 03:44:07;;;;;;;4.25;2.42;;;;;;;;;;2039342;28;20551;-80
2023/07/30 03:45:26;;;;;;;4.40;2.63;;;;;;;;;;2037425;29;20036;-80
2023/07/30 03:46:48;;;;;;;6.00;3.10;;;;;;;;;;2046072;28;20031;-79
2023/07/30 03:48:07;;;;;;;2.65;2.47;;;;;;;;;;2049520;28;20035;-80
2023/07/30 03:49:26;;;;;;;4.07;2.47;;;;;;;;;;2049728;28;20059;-80
2023/07/30 03:50:45;;;;;;;2.90;2.25;;;;;;;;;;2040165;28;20032;-80
2023/07/30 03:52:04;;;;;;;4.55;2.78;;;;;;;;;;2046531;28;20388;-80
2023/07/30 03:53:23;;;;;;;3.25;2.95;;;;;;;;;;2040950;28;20035;-80
2023/07/30 03:54:42;;;;;;;4.93;2.78;;;;;;;;;;2046801;28;20039;-79
2023/07/30 03:56:01;;;;;;;2.67;2.47;;;;;;;;;;2048212;28;20451;-80
2023/07/30 03:57:21;;;;;;;3.22;2.53;;;;;;;;;;2044061;28;20069;-80
2023/07/30 03:58:40;;;;;;;2.80;2.60;;;;;;;;;;2041028;28;20068;-80
2023/07/30 03:59:59;;;;;;;4.82;2.70;;;;;;;;;;2045218;28;20027;-80
2023/07/30 04:01:18;;;;;;;3.53;2.50;;;;;;;;;;2042808;28;20040;-80
2023/07/30 04:02:37;;;;;;;2.55;2.38;;;;;;;;;;2044123;28;20035;-80
2023/07/30 04:03:56;;;;;;;3.30;2.60;;;;;;;;;;2040741;29;20469;-80
2023/07/30 04:05:15;;;;;;;5.43;2.83;;;;;;;;;;2042361;28;20039;-79
2023/07/30 04:06:34;;;;;;;2.72;2.53;;;;;;;;;;2037185;28;20106;-80
2023/07/30 04:07:52;;;;;;;2.45;2.20;;;;;;;;;;2045465;28;20027;-80
2023/07/30 04:09:11;;;;;;;2.63;2.20;;;;;;;;;;2048364;28;20111;-79
2023/07/30 04:10:30;;;;;;;3.85;2.85;;;;;;;;;;2049328;28;20504;-79
2023/07/30 04:11:50;;;;;;;3.10;2.42;;;;;;;;;;2040716;28;20028;-80
2023/07/30 04:13:08;;;;;;;2.60;2.38;;;;;;;;;;2045526;28;20031;-80
2023/07/30 04:14:27;;;;;;;2.55;2.35;;;;;;;;;;2048970;28;20023;-80
2023/07/30 04:15:49;;;;;;;2.65;2.45;;;;;;;;;;2040376;28;20036;-80
2023/07/30 04:17:08;;;;;;;2.85;2.63;;;;;;;;;;2048210;28;20047;-81
2023/07/30 04:18:27;;;;;;;3.75;2.58;;;;;;;;;;2050633;28;20040;-79
2023/07/30 04:19:46;;;;;;;2.90;2.58;;;;;;;;;;2043857;29;20028;-80
2023/07/30 04:21:05;;;;;;;2.90;2.70;;;;;;;;;;2047271;28;20044;-80
2023/07/30 04:22:24;;;;;;;5.00;3.08;;;;;;;;;;2055384;28;20043;-80
2023/07/30 04:23:43;;;;;;;4.22;2.60;;;;;;;;;;2051089;28;20036;-80
2023/07/30 04:25:03;;;;;;;5.00;3.13;;;;;;;;;;2054096;29;20039;-80
2023/07/30 04:26:22;;;;;;;3.72;3.00;;;;;;;;;;2048966;29;20039;-80
2023/07/30 04:27:42;;;;;;;3.42;3.13;;;;;;;;;;2046303;28;20027;-81
2023/07/30 04:29:02;;;;;;;3.25;2.95;;;;;;;;;;2054407;28;20023;-80
2023/07/30 04:30:21;;;;;;;2.45;2.22;;;;;;;;;;2051036;28;20067;-80
2023/07/30 04:31:40;;;;;;;3.72;2.67;;;;;;;;;;2051625;29;20047;-80
2023/07/30 04:32:59;;;;;;;4.22;2.88;;;;;;;;;;2049804;29;20020;-81
2023/07/30 04:34:18;;;;;;;3.20;2.60;;;;;;;;;;2047038;28;20031;-80
2023/07/30 04:35:37;;;;;;;3.17;2.60;;;;;;;;;;2038132;28;20413;-80
2023/07/30 04:36:55;;;;;;;3.85;2.78;;;;;;;;;;2037938;28;20028;-80
2023/07/30 04:38:15;;;;;;;3.00;2.70;;;;;;;;;;2045767;28;20031;-79
2023/07/30 04:39:34;;;;;;;4.50;2.90;;;;;;;;;;2049393;28;20107;-80
2023/07/30 04:40:53;;;;;;;2.70;2.50;;;;;;;;;;2041071;28;20024;-80
2023/07/30 04:42:13;;;;;;;2.78;2.50;;;;;;;;;;2047131;28;20031;-80
2023/07/30 04:43:32;;;;;;;3.83;2.80;;;;;;;;;;2041657;29;20024;-79
2023/07/30 04:44:51;;;;;;;4.07;3.42;;;;;;;;;;2047476;28;20029;-80
2023/07/30 04:46:10;;;;;;;3.10;2.80;;;;;;;;;;2049087;28;20024;-79
2023/07/30 04:47:29;;;;;;;3.35;3.08;;;;;;;;;;2050750;28;20020;-80
2023/07/30 04:48:48;;;;;;;2.78;2.58;;;;;;;;;;2059869;28;20051;-79
2023/07/30 04:50:08;;;;;;;3.00;2.70;;;;;;;;;;2039644;28;20028;-79
2023/07/30 04:51:26;;;;;;;3.17;2.85;;;;;;;;;;2037720;28;20529;-80
2023/07/30 04:52:45;;;;;;;3.00;2.55;;;;;;;;;;2044096;28;20031;-79
2023/07/30 04:54:04;;;;;;;2.92;2.65;;;;;;;;;;2041823;28;20115;-80
2023/07/30 04:55:23;;;;;;;3.30;2.63;;;;;;;;;;2044731;28;20027;-80
2023/07/30 04:56:42;;;;;;;2.50;2.30;;;;;;;;;;2048547;29;20122;-80
2023/07/30 04:58:02;;;;;;;3.22;2.60;;;;;;;;;;2044315;28;20027;-80
2023/07/30 04:59:21;;;;;;;4.18;2.80;;;;;;;;;;2038099;28;20492;-79
2023/07/30 05:00:40;;;;;;;2.85;2.63;;;;;;;;;;2048601;28;20031;-79
2023/07/30 05:01:59;;;;;;;3.92;2.92;;;;;;;;;;2050113;28;20023;-80
2023/07/30 05:03:18;;;;;;;3.40;3.05;;;;;;;;;;2049287;28;20027;-79
2023/07/30 05:04:37;;;;;;;3.85;2.72;;;;;;;;;;2042472;29;20501;-78
2023/07/30 05:05:56;;;;;;;4.43;2.58;;;;;;;;;;2077986;28;20065;-78
2023/07/30 05:07:15;;;;;;;3.75;2.65;;;;;;;;;;2063808;28;20027;-79
2023/07/30 05:08:34;;;;;;;3.80;2.72;;;;;;;;;;2052402;28;20039;-80
2023/07/30 05:09:53;;;;;;;2.78;2.55;;;;;;;;;;2045027;28;20043;-79
2023/07/30 05:11:12;;;;;;;3.70;2.60;;;;;;;;;;2046604;28;20047;-79
2023/07/30 05:12:31;;;;;;;3.28;2.97;;;;;;;;;;2041616;28;20059;-79
2023/07/30 05:13:50;;;;;;;3.80;2.88;;;;;;;;;;2045216;28;20043;-79
2023/07/30 05:15:08;;;;;;;3.15;2.78;;;;;;;;;;2048531;28;20039;-79
2023/07/30 05:16:27;;;;;;;4.70;2.63;;;;;;;;;;2040552;28;20028;-80
2023/07/30 05:17:46;;;;;;;3.30;3.00;;;;;;;;;;2037000;28;20444;-78
2023/07/30 05:19:05;;;;;;;3.45;3.15;;;;;;;;;;2046791;28;20043;-79
2023/07/30 05:20:24;;;;;;;4.68;3.20;;;;;;;;;;2039799;28;20035;-80
2023/07/30 05:21:43;;;;;;;2.75;2.55;;;;;;;;;;2047108;28;20028;-79
2023/07/30 05:23:02;;;;;;;3.17;2.88;;;;;;;;;;2048114;29;20035;-81
2023/07/30 05:24:21;;;;;;;3.20;3.00;;;;;;;;;;2044569;28;20464;-80
2023/07/30 05:25:40;;;;;;;3.20;2.88;;;;;;;;;;2046809;28;20480;-80
2023/07/30 05:26:59;;;;;;;3.08;2.72;;;;;;;;;;2044247;28;20035;-79
2023/07/30 05:28:18;;;;;;;3.42;3.13;;;;;;;;;;2047673;28;20035;-79
2023/07/30 05:29:37;;;;;;;3.05;2.75;;;;;;;;;;2038599;28;20028;-79
2023/07/30 05:30:56;;;;;;;2.92;2.72;;;;;;;;;;2043784;28;20023;-79
2023/07/30 05:32:15;;;;;;;2.70;2.50;;;;;;;;;;2049888;28;20480;-80
2023/07/30 05:33:34;;;;;;;2.92;2.58;;;;;;;;;;2045575;28;20043;-79
2023/07/30 05:34:53;;;;;;;5.50;2.90;;;;;;;;;;2039746;28;20031;-80
2023/07/30 05:36:12;;;;;;;3.17;2.85;;;;;;;;;;2037184;28;20035;-80
2023/07/30 05:37:31;;;;;;;4.38;3.10;;;;;;;;;;2038566;28;20039;-80
2023/07/30 05:38:50;;;;;;;2.85;2.65;;;;;;;;;;2044737;28;20031;-80
2023/07/30 05:40:09;;;;;;;3.40;2.95;;;;;;;;;;2039570;28;20055;-79
2023/07/30 05:41:28;;;;;;;2.80;2.60;;;;;;;;;;2039406;28;20032;-80
2023/07/30 05:42:47;;;;;;;2.75;2.47;;;;;;;;;;2080842;28;20025;-81
2023/07/30 05:44:06;;;;;;;3.10;2.67;;;;;;;;;;2053316;28;20432;-80
2023/07/30 05:45:25;;;;;;;2.95;2.70;;;;;;;;;;2044875;28;20035;-79
2023/07/30 05:46:43;;;;;;;3.15;2.88;;;;;;;;;;2051208;28;20051;-78
2023/07/30 05:48:02;;;;;;;2.85;2.63;;;;;;;;;;2048137;28;20040;-80
2023/07/30 05:49:21;;;;;;;3.35;2.83;;;;;;;;;;2047934;29;20028;-78
2023/07/30 05:50:40;;;;;;;3.42;3.13;;;;;;;;;;2040957;28;20468;-79
2023/07/30 05:51:59;;;;;;;4.30;3.05;;;;;;;;;;2037792;28;20076;-79
2023/07/30 05:53:18;;;;;;;3.50;3.20;;;;;;;;;;2044023;29;20031;-78
2023/07/30 05:54:37;;;;;;;3.83;3.15;;;;;;;;;;2047907;28;20024;-79
2023/07/30 05:55:56;;;;;;;3.42;3.05;;;;;;;;;;2041591;28;20059;-78
2023/07/30 05:57:15;;;;;;;3.40;2.80;;;;;;;;;;2044677;29;20115;-80
2023/07/30 05:58:34;;;;;;;3.88;3.03;;;;;;;;;;2048657;28;20031;-79
2023/07/30 05:59:53;;;;;;;3.72;3.28;;;;;;;;;;2047505;28;20027;-80
2023/07/30 06:01:12;;;;;;;3.50;3.10;;;;;;;;;;2045929;28;20062;-79
2023/07/30 06:02:31;;;;;;;4.63;2.80;;;;;;;;;;2048626;29;20431;-80
2023/07/30 06:03:50;;;;;;;2.88;2.65;;;;;;;;;;2039924;29;20028;-80
2023/07/30 06:05:09;;;;;;;5.38;3.15;;;;;;;;;;2041446;28;20091;-79
2023/07/30 06:06:29;;;;;;;5.45;2.80;;;;;;;;;;2035197;28;20036;-80
2023/07/30 06:07:48;;;;;;;3.67;3.08;;;;;;;;;;2044381;29;20122;-80
2023/07/30 06:09:07;;;;;;;3.58;3.25;;;;;;;;;;2039912;29;20028;-80
2023/07/30 06:10:27;;;;;;;4.20;3.03;;;;;;;;;;2044536;28;20057;-80
2023/07/30 06:11:45;;;;;;;2.90;2.70;;;;;;;;;;2045506;28;20035;-78
2023/07/30 06:13:05;;;;;;;5.30;3.25;;;;;;;;;;2051365;28;20027;-79
2023/07/30 06:14:24;;;;;;;3.95;3.15;;;;;;;;;;2039823;28;20039;-79
2023/07/30 06:15:43;;;;;;;4.00;3.35;;;;;;;;;;2036098;29;20103;-79
2023/07/30 06:17:02;;;;;;;4.93;3.30;;;;;;;;;;2049197;28;20047;-80
2023/07/30 06:18:21;;;;;;;3.08;2.70;;;;;;;;;;2043724;28;20032;-79
2023/07/30 06:19:40;;;;;;;4.43;2.85;;;;;;;;;;2045558;28;20015;-79
2023/07/30 06:20:59;;;;;;;6.03;3.30;;;;;;;;;;2044903;28;20059;-79
2023/07/30 06:22:18;;;;;;;3.25;2.97;;;;;;;;;;2051467;28;20077;-80
2023/07/30 06:23:37;;;;;;;5.93;3.42;;;;;;;;;;2039886;28;20032;-79
2023/07/30 06:24:56;;;;;;;3.00;2.80;;;;;;;;;;2044217;29;20085;-80
2023/07/30 06:26:16;;;;;;;2.90;2.70;;;;;;;;;;2046589;29;20027;-79
2023/07/30 06:27:35;;;;;;;3.70;2.67;;;;;;;;;;2047651;29;20384;-79
2023/07/30 06:28:55;;;;;;;4.00;3.05;;;;;;;;;;2048656;28;20031;-81
2023/07/30 06:30:13;;;;;;;3.20;2.90;;;;;;;;;;2047104;28;20031;-80
2023/07/30 06:31:32;;;;;;;3.65;3.25;;;;;;;;;;2048168;29;20450;-80
2023/07/30 06:32:51;;;;;;;5.20;3.10;;;;;;;;;;2047535;29;20042;-80
2023/07/30 06:34:10;;;;;;;3.60;2.70;;;;;;;;;;2041833;28;20063;-79
2023/07/30 06:35:29;;;;;;;5.13;3.03;;;;;;;;;;2037649;28;20501;-79
2023/07/30 06:36:48;;;;;;;3.80;3.05;;;;;;;;;;2035519;28;20043;-78
2023/07/30 06:38:08;;;;;;;3.90;2.92;;;;;;;;;;2044398;29;20031;-81
2023/07/30 06:39:27;;;;;;;4.93;3.25;;;;;;;;;;2047192;28;20027;-79
2023/07/30 06:40:46;;;;;;;4.43;3.40;;;;;;;;;;2044197;28;20024;-80
2023/07/30 06:42:05;;;;;;;2.92;2.70;;;;;;;;;;2036229;29;20062;-79
2023/07/30 06:43:24;;;;;;;5.03;2.80;;;;;;;;;;2044184;29;20035;-80
2023/07/30 06:44:43;;;;;;;2.40;2.20;;;;;;;;;;2042239;28;20020;-79
2023/07/30 06:46:03;;;;;;;3.47;2.50;;;;;;;;;;2045760;28;20027;-80
2023/07/30 06:47:22;;;;;;;2.67;2.40;;;;;;;;;;2049982;28;20067;-80
2023/07/30 06:48:41;;;;;;;2.90;2.60;;;;;;;;;;2040567;28;20036;-81
2023/07/30 06:50:00;;;;;;;3.33;3.05;;;;;;;;;;2044955;29;20027;-81
2023/07/30 06:51:20;;;;;;;5.68;2.50;;;;;;;;;;2047989;28;20484;-81
2023/07/30 06:52:40;;;;;;;4.13;2.90;;;;;;;;;;2038460;28;20040;-78
2023/07/30 06:53:58;;;;;;;3.83;3.10;;;;;;;;;;2044420;29;20032;-80
2023/07/30 06:55:17;;;;;;;4.97;3.78;;;;;;;;;;2048629;28;20027;-79
2023/07/30 06:56:36;;;;;;;4.85;3.03;;;;;;;;;;2047908;28;20039;-79
2023/07/30 06:57:55;;;;;;;3.20;2.72;;;;;;;;;;2040351;28;20028;-79
2023/07/30 06:59:15;;;;;;;3.05;2.75;;;;;;;;;;2044122;29;20032;-80
2023/07/30 07:00:34;;;;;;;4.22;3.10;;;;;;;;;;2047454;29;20043;-80
2023/07/30 07:01:52;;;;;;;3.17;2.97;;;;;;;;;;2049245;28;20488;-79
2023/07/30 07:03:11;;;;;;;5.80;3.15;;;;;;;;;;2044521;28;20024;-79
2023/07/30 07:04:30;;;;;;;3.83;3.28;;;;;;;;;;2039491;28;20024;-79
2023/07/30 07:05:54;;;;;;;4.75;3.60;;;;;;;;;;2051160;28;20032;-80
2023/07/30 07:07:13;;;;;;;4.25;2.80;;;;;;;;;;2047102;28;20024;-81
2023/07/30 07:08:32;;;;;;;5.10;3.25;;;;;;;;;;2047920;28;20043;-80
2023/07/30 07:09:51;;;;;;;2.63;2.42;;;;;;;;;;2048974;28;20031;-79
2023/07/30 07:11:10;;;;;;;3.55;3.25;;;;;;;;;;2048524;28;20036;-79
2023/07/30 07:12:29;;;;;;;3.83;3.00;;;;;;;;;;2050669;28;20036;-79
2023/07/30 07:13:48;;;;;;;5.20;3.88;;;;;;;;;;2048995;28;20039;-79
2023/07/30 07:15:07;;;;;;;4.50;3.33;;;;;;;;;;2047770;28;20435;-80
2023/07/30 07:16:26;;;;;;;3.67;2.90;;;;;;;;;;2047967;29;20027;-80
2023/07/30 07:17:45;;;;;;;3.67;3.28;;;;;;;;;;2039114;28;20028;-79
2023/07/30 07:19:06;;;;;;;3.47;2.85;;;;;;;;;;2039782;28;20052;-81
2023/07/30 07:20:24;;;;;;;2.70;2.50;;;;;;;;;;2045103;28;20028;-79
2023/07/30 07:21:43;;;;;;;3.00;2.80;;;;;;;;;;2046887;29;20114;-79
2023/07/30 07:23:02;;;;;;;4.40;3.38;;;;;;;;;;2048199;29;20055;-79
2023/07/30 07:24:21;;;;;;;3.90;3.00;;;;;;;;;;2040120;28;20055;-79
2023/07/30 07:25:43;;;;;;;3.88;3.28;;;;;;;;;;2043650;28;20028;-79
2023/07/30 07:27:03;;;;;;;3.88;3.20;;;;;;;;;;2046337;28;20023;-80
2023/07/30 07:28:22;;;;;;;4.00;3.70;;;;;;;;;;2039878;28;20155;-79
2023/07/30 07:29:41;;;;;;;4.38;3.33;;;;;;;;;;2044845;29;20404;-78
2023/07/30 07:31:01;;;;;;;4.20;2.78;;;;;;;;;;2038299;28;20036;-79
2023/07/30 07:32:20;;;;;;;5.57;3.45;;;;;;;;;;2038328;28;20035;-78
2023/07/30 07:33:40;;;;;;;3.33;3.08;;;;;;;;;;2043435;28;20102;-80
2023/07/30 07:34:59;;;;;;;4.80;3.47;;;;;;;;;;2047392;29;20031;-79
2023/07/30 07:36:18;;;;;;;3.83;3.35;;;;;;;;;;2041233;28;20040;-80
2023/07/30 07:37:37;;;;;;;3.10;2.85;;;;;;;;;;2036329;29;20036;-79
2023/07/30 07:38:56;;;;;;;3.20;2.92;;;;;;;;;;2044336;29;20031;-80
2023/07/30 07:40:16;;;;;;;3.17;2.88;;;;;;;;;;2048007;28;20059;-79
2023/07/30 07:41:35;;;;;;;6.25;3.10;;;;;;;;;;2048146;29;20027;-80
2023/07/30 07:42:54;;;;;;;4.95;3.83;;;;;;;;;;2054594;28;20473;-80
2023/07/30 07:44:13;;;;;;;4.70;3.15;;;;;;;;;;2049257;29;20035;-80
2023/07/30 07:45:32;;;;;;;5.88;3.38;;;;;;;;;;2040270;28;20044;-79
2023/07/30 07:46:51;;;;;;;3.83;3.47;;;;;;;;;;2040453;28;20448;-79
2023/07/30 07:48:11;;;;;;;4.63;2.97;;;;;;;;;;2088978;28;20093;-80
2023/07/30 07:49:30;;;;;;;4.05;3.75;;;;;;;;;;2069347;28;20024;-80
2023/07/30 07:50:49;;;;;;;4.35;3.33;;;;;;;;;;2056103;29;20027;-80
2023/07/30 07:52:08;;;;;;;4.82;3.22;;;;;;;;;;2056133;28;20070;-81
2023/07/30 07:53:28;;;;;;;3.90;3.53;;;;;;;;;;2048826;29;20032;-78
2023/07/30 07:54:47;;;;;;;4.45;3.22;;;;;;;;;;2056425;28;20054;-79